sensor_id;sensor_type;location;lat;lon;timestamp;P1;durP1;ratioP1;P2;durP2;ratioP2
215;SDS011;64590;48.81286795;9.14184224;2023-02-01T00:02:26;9.02;;;5.00;;
215;SDS011;64590;48.81286795;9.14184224;2023-02-01T00:04:52;8.40;;;4.88;;
215;SDS011;64590;48.81286795;9.14184224;2023-02-01T00:07:19;9.50;;;5.20;;
215;SDS011;64590;48.81286795;9.14184224;2023-02-01T00:09:45;8.40;;;4.72;;
215;SDS011;64590;48.81286795;9.14184224;2023-02-01T00:12:13;7.22;;;4.32;;
215;SDS011;64590;48.81286795;9.14184224;2023-02-01T00:14:40;7.93;;;4.55;;
215;SDS011;64590;48.81286795;9.14184224;2023-02-01T00:17:06;7.82;;;4.70;;
215;SDS011;64590;48.81286795;9.14184224;2023-02-01T00:19:33;7.38;;;4.30;;
215;SDS011;64590;48.81286795;9.14184224;2023-02-01T00:22:00;6.97;;;4.05;;
215;SDS011;64590;48.81286795;9.14184224;2023-02-01T00:24:27;8.77;;;4.63;;
215;SDS011;64590;48.81286795;9.14184224;2023-02-01T00:26:54;5.93;;;3.78;;
215;SDS011;64590;48.81286795;9.14184224;2023-02-01T00:29:22;6.50;;;4.10;;
215;SDS011;64590;48.81286795;9.14184224;2023-02-01T00:31:49;6.10;;;3.95;;
215;SDS011;64590;48.81286795;9.14184224;2023-02-01T00:34:17;6.43;;;3.78;;
215;SDS011;64590;48.81286795;9.14184224;2023-02-01T00:36:45;7.15;;;4.07;;
215;SDS011;64590;48.81286795;9.14184224;2023-02-01T00:39:12;8.95;;;4.25;;
215;SDS011;64590;48.81286795;9.14184224;2023-02-01T00:41:39;6.45;;;4.03;;
215;SDS011;64590;48.81286795;9.14184224;2023-02-01T00:44:06;7.70;;;4.00;;
215;SDS011;64590;48.81286795;9.14184224;2023-02-01T00:46:34;6.20;;;3.90;;
215;SDS011;64590;48.81286795;9.14184224;2023-02-01T00:49:01;5.78;;;3.70;;
215;SDS011;64590;48.81286795;9.14184224;2023-02-01T00:51:28;5.38;;;3.55;;
215;SDS011;64590;48.81286795;9.14184224;2023-02-01T00:53:56;6.22;;;3.63;;
215;SDS011;64590;48.81286795;9.14184224;2023-02-01T00:56:23;5.78;;;3.80;;
215;SDS011;64590;48.81286795;9.14184224;2023-02-01T00:58:49;6.50;;;3.53;;
215;SDS011;64590;48.81286795;9.14184224;2023-02-01T01:01:17;5.85;;;3.53;;
215;SDS011;64590;48.81286795;9.14184224;2023-02-01T01:03:47;6.18;;;3.50;;
215;SDS011;64590;48.81286795;9.14184224;2023-02-01T01:06:17;6.40;;;3.50;;
215;SDS011;64590;48.81286795;9.14184224;2023-02-01T01:08:46;4.80;;;3.10;;
215;SDS011;64590;48.81286795;9.14184224;2023-02-01T01:11:14;6.07;;;3.65;;
215;SDS011;64590;48.81286795;9.14184224;2023-02-01T01:13:42;6.20;;;3.40;;
215;SDS011;64590;48.81286795;9.14184224;2023-02-01T01:16:10;5.78;;;3.40;;
215;SDS011;64590;48.81286795;9.14184224;2023-02-01T01:18:37;8.57;;;5.40;;
215;SDS011;64590;48.81286795;9.14184224;2023-02-01T01:21:05;7.30;;;3.80;;
215;SDS011;64590;48.81286795;9.14184224;2023-02-01T01:23:34;6.20;;;3.60;;
215;SDS011;64590;48.81286795;9.14184224;2023-02-01T01:26:04;4.72;;;3.30;;
215;SDS011;64590;48.81286795;9.14184224;2023-02-01T01:28:31;5.63;;;3.65;;
215;SDS011;64590;48.81286795;9.14184224;2023-02-01T01:30:58;6.00;;;3.70;;
215;SDS011;64590;48.81286795;9.14184224;2023-02-01T01:33:24;4.97;;;3.35;;
215;SDS011;64590;48.81286795;9.14184224;2023-02-01T01:35:51;5.53;;;3.33;;
215;SDS011;64590;48.81286795;9.14184224;2023-02-01T01:38:19;4.93;;;3.10;;
215;SDS011;64590;48.81286795;9.14184224;2023-02-01T01:40:45;5.00;;;3.20;;
215;SDS011;64590;48.81286795;9.14184224;2023-02-01T01:43:15;4.60;;;3.00;;
215;SDS011;64590;48.81286795;9.14184224;2023-02-01T01:45:45;5.75;;;3.05;;
215;SDS011;64590;48.81286795;9.14184224;2023-02-01T01:48:13;5.07;;;3.30;;
215;SDS011;64590;48.81286795;9.14184224;2023-02-01T01:50:46;4.97;;;2.92;;
215;SDS011;64590;48.81286795;9.14184224;2023-02-01T01:53:18;5.38;;;3.10;;
215;SDS011;64590;48.81286795;9.14184224;2023-02-01T01:55:49;4.20;;;2.90;;
215;SDS011;64590;48.81286795;9.14184224;2023-02-01T01:58:18;6.80;;;3.00;;
215;SDS011;64590;48.81286795;9.14184224;2023-02-01T02:00:47;3.95;;;2.70;;
215;SDS011;64590;48.81286795;9.14184224;2023-02-01T02:03:15;4.43;;;3.00;;
215;SDS011;64590;48.81286795;9.14184224;2023-02-01T02:05:45;4.10;;;2.80;;
215;SDS011;64590;48.81286795;9.14184224;2023-02-01T02:08:14;5.40;;;2.80;;
215;SDS011;64590;48.81286795;9.14184224;2023-02-01T02:10:43;4.90;;;2.80;;
215;SDS011;64590;48.81286795;9.14184224;2023-02-01T02:13:28;4.20;;;2.60;;
215;SDS011;64590;48.81286795;9.14184224;2023-02-01T02:16:04;5.07;;;2.70;;
215;SDS011;64590;48.81286795;9.14184224;2023-02-01T02:18:41;4.65;;;2.78;;
215;SDS011;64590;48.81286795;9.14184224;2023-02-01T02:21:18;5.30;;;2.78;;
215;SDS011;64590;48.81286795;9.14184224;2023-02-01T02:27:06;4.63;;;2.60;;
215;SDS011;64590;48.81286795;9.14184224;2023-02-01T02:33:03;5.25;;;2.67;;
215;SDS011;64590;48.81286795;9.14184224;2023-02-01T02:36:03;5.68;;;3.70;;
215;SDS011;64590;48.81286795;9.14184224;2023-02-01T02:38:39;6.57;;;3.70;;
215;SDS011;64590;48.81286795;9.14184224;2023-02-01T02:41:13;5.63;;;3.50;;
215;SDS011;64590;48.81286795;9.14184224;2023-02-01T02:43:58;6.07;;;3.55;;
215;SDS011;64590;48.81286795;9.14184224;2023-02-01T02:46:48;5.45;;;3.40;;
215;SDS011;64590;48.81286795;9.14184224;2023-02-01T02:49:36;5.68;;;3.65;;
215;SDS011;64590;48.81286795;9.14184224;2023-02-01T02:52:09;5.45;;;3.30;;
215;SDS011;64590;48.81286795;9.14184224;2023-02-01T02:54:55;6.53;;;3.72;;
215;SDS011;64590;48.81286795;9.14184224;2023-02-01T02:57:24;6.38;;;3.72;;
215;SDS011;64590;48.81286795;9.14184224;2023-02-01T03:00:12;6.72;;;3.75;;
215;SDS011;64590;48.81286795;9.14184224;2023-02-01T03:02:59;6.18;;;3.80;;
215;SDS011;64590;48.81286795;9.14184224;2023-02-01T03:05:47;6.10;;;3.63;;
215;SDS011;64590;48.81286795;9.14184224;2023-02-01T03:08:16;8.40;;;4.00;;
215;SDS011;64590;48.81286795;9.14184224;2023-02-01T03:10:47;6.88;;;3.78;;
215;SDS011;64590;48.81286795;9.14184224;2023-02-01T03:13:18;5.40;;;3.50;;
215;SDS011;64590;48.81286795;9.14184224;2023-02-01T03:15:51;5.90;;;3.65;;
215;SDS011;64590;48.81286795;9.14184224;2023-02-01T03:18:26;6.50;;;3.80;;
215;SDS011;64590;48.81286795;9.14184224;2023-02-01T03:21:00;5.70;;;3.58;;
215;SDS011;64590;48.81286795;9.14184224;2023-02-01T03:23:31;6.43;;;3.92;;
215;SDS011;64590;48.81286795;9.14184224;2023-02-01T03:26:01;5.00;;;3.33;;
215;SDS011;64590;48.81286795;9.14184224;2023-02-01T03:28:30;4.75;;;3.30;;
215;SDS011;64590;48.81286795;9.14184224;2023-02-01T03:31:00;6.03;;;3.70;;
215;SDS011;64590;48.81286795;9.14184224;2023-02-01T03:33:28;5.63;;;3.20;;
215;SDS011;64590;48.81286795;9.14184224;2023-02-01T03:36:00;5.28;;;3.30;;
215;SDS011;64590;48.81286795;9.14184224;2023-02-01T03:38:36;4.95;;;3.25;;
215;SDS011;64590;48.81286795;9.14184224;2023-02-01T03:41:10;6.25;;;3.83;;
215;SDS011;64590;48.81286795;9.14184224;2023-02-01T03:43:43;5.05;;;3.10;;
215;SDS011;64590;48.81286795;9.14184224;2023-02-01T03:46:20;5.80;;;3.65;;
215;SDS011;64590;48.81286795;9.14184224;2023-02-01T03:48:52;5.95;;;3.65;;
215;SDS011;64590;48.81286795;9.14184224;2023-02-01T03:51:22;5.15;;;3.20;;
215;SDS011;64590;48.81286795;9.14184224;2023-02-01T03:53:50;5.15;;;3.20;;
215;SDS011;64590;48.81286795;9.14184224;2023-02-01T03:56:19;6.47;;;3.30;;
215;SDS011;64590;48.81286795;9.14184224;2023-02-01T03:58:49;6.15;;;3.40;;
215;SDS011;64590;48.81286795;9.14184224;2023-02-01T04:01:27;5.32;;;3.22;;
215;SDS011;64590;48.81286795;9.14184224;2023-02-01T04:03:54;5.30;;;3.20;;
215;SDS011;64590;48.81286795;9.14184224;2023-02-01T04:06:22;5.20;;;3.30;;
215;SDS011;64590;48.81286795;9.14184224;2023-02-01T04:08:50;4.97;;;3.30;;
215;SDS011;64590;48.81286795;9.14184224;2023-02-01T04:11:17;4.72;;;3.15;;
215;SDS011;64590;48.81286795;9.14184224;2023-02-01T04:13:44;7.45;;;3.42;;
215;SDS011;64590;48.81286795;9.14184224;2023-02-01T04:16:10;4.57;;;3.20;;
215;SDS011;64590;48.81286795;9.14184224;2023-02-01T04:18:37;4.90;;;3.22;;
215;SDS011;64590;48.81286795;9.14184224;2023-02-01T04:21:04;4.68;;;3.13;;
215;SDS011;64590;48.81286795;9.14184224;2023-02-01T04:23:32;4.20;;;2.85;;
215;SDS011;64590;48.81286795;9.14184224;2023-02-01T04:25:59;5.10;;;3.20;;
215;SDS011;64590;48.81286795;9.14184224;2023-02-01T04:28:26;4.82;;;2.97;;
215;SDS011;64590;48.81286795;9.14184224;2023-02-01T04:30:53;4.55;;;2.80;;
215;SDS011;64590;48.81286795;9.14184224;2023-02-01T04:33:20;5.03;;;3.30;;
215;SDS011;64590;48.81286795;9.14184224;2023-02-01T04:35:46;4.30;;;2.90;;
215;SDS011;64590;48.81286795;9.14184224;2023-02-01T04:38:13;4.77;;;2.97;;
215;SDS011;64590;48.81286795;9.14184224;2023-02-01T04:40:41;6.18;;;3.05;;
215;SDS011;64590;48.81286795;9.14184224;2023-02-01T04:43:07;4.25;;;2.80;;
215;SDS011;64590;48.81286795;9.14184224;2023-02-01T04:45:34;4.75;;;2.80;;
215;SDS011;64590;48.81286795;9.14184224;2023-02-01T04:48:01;5.43;;;3.30;;
215;SDS011;64590;48.81286795;9.14184224;2023-02-01T04:50:27;4.65;;;2.90;;
215;SDS011;64590;48.81286795;9.14184224;2023-02-01T04:52:54;7.03;;;3.20;;
215;SDS011;64590;48.81286795;9.14184224;2023-02-01T04:55:20;4.85;;;2.97;;
215;SDS011;64590;48.81286795;9.14184224;2023-02-01T04:57:48;5.03;;;2.83;;
215;SDS011;64590;48.81286795;9.14184224;2023-02-01T05:00:15;6.45;;;3.00;;
215;SDS011;64590;48.81286795;9.14184224;2023-02-01T05:02:42;4.55;;;2.90;;
215;SDS011;64590;48.81286795;9.14184224;2023-02-01T05:05:09;4.53;;;2.80;;
215;SDS011;64590;48.81286795;9.14184224;2023-02-01T05:07:35;5.43;;;2.90;;
215;SDS011;64590;48.81286795;9.14184224;2023-02-01T05:10:02;5.67;;;2.97;;
215;SDS011;64590;48.81286795;9.14184224;2023-02-01T05:12:29;4.43;;;2.75;;
215;SDS011;64590;48.81286795;9.14184224;2023-02-01T05:15:14;4.43;;;2.70;;
215;SDS011;64590;48.81286795;9.14184224;2023-02-01T05:17:41;4.50;;;2.63;;
215;SDS011;64590;48.81286795;9.14184224;2023-02-01T05:20:08;5.50;;;3.20;;
215;SDS011;64590;48.81286795;9.14184224;2023-02-01T05:22:35;4.50;;;2.90;;
215;SDS011;64590;48.81286795;9.14184224;2023-02-01T05:25:02;4.55;;;2.83;;
215;SDS011;64590;48.81286795;9.14184224;2023-02-01T05:27:29;4.53;;;2.90;;
215;SDS011;64590;48.81286795;9.14184224;2023-02-01T05:29:55;5.60;;;2.90;;
215;SDS011;64590;48.81286795;9.14184224;2023-02-01T05:32:23;4.60;;;3.10;;
215;SDS011;64590;48.81286795;9.14184224;2023-02-01T05:34:50;4.50;;;3.00;;
215;SDS011;64590;48.81286795;9.14184224;2023-02-01T05:37:16;5.03;;;3.20;;
215;SDS011;64590;48.81286795;9.14184224;2023-02-01T05:39:43;5.45;;;3.10;;
215;SDS011;64590;48.81286795;9.14184224;2023-02-01T05:42:09;6.50;;;2.95;;
215;SDS011;64590;48.81286795;9.14184224;2023-02-01T05:44:36;7.07;;;3.00;;
215;SDS011;64590;48.81286795;9.14184224;2023-02-01T05:47:02;4.50;;;2.70;;
215;SDS011;64590;48.81286795;9.14184224;2023-02-01T05:49:31;4.68;;;2.92;;
215;SDS011;64590;48.81286795;9.14184224;2023-02-01T05:51:57;4.93;;;2.60;;
215;SDS011;64590;48.81286795;9.14184224;2023-02-01T05:54:24;4.90;;;2.88;;
215;SDS011;64590;48.81286795;9.14184224;2023-02-01T05:56:50;6.05;;;3.10;;
215;SDS011;64590;48.81286795;9.14184224;2023-02-01T05:59:17;6.18;;;3.00;;
215;SDS011;64590;48.81286795;9.14184224;2023-02-01T06:01:44;5.18;;;3.15;;
215;SDS011;64590;48.81286795;9.14184224;2023-02-01T06:04:10;5.30;;;3.15;;
215;SDS011;64590;48.81286795;9.14184224;2023-02-01T06:06:38;6.53;;;3.00;;
215;SDS011;64590;48.81286795;9.14184224;2023-02-01T06:09:05;4.95;;;3.03;;
215;SDS011;64590;48.81286795;9.14184224;2023-02-01T06:11:31;5.60;;;3.20;;
215;SDS011;64590;48.81286795;9.14184224;2023-02-01T06:13:58;4.80;;;3.10;;
215;SDS011;64590;48.81286795;9.14184224;2023-02-01T06:16:25;5.00;;;2.80;;
215;SDS011;64590;48.81286795;9.14184224;2023-02-01T06:18:51;5.13;;;3.30;;
215;SDS011;64590;48.81286795;9.14184224;2023-02-01T06:21:18;5.37;;;3.10;;
215;SDS011;64590;48.81286795;9.14184224;2023-02-01T06:23:50;5.45;;;3.25;;
215;SDS011;64590;48.81286795;9.14184224;2023-02-01T06:26:16;6.15;;;3.25;;
215;SDS011;64590;48.81286795;9.14184224;2023-02-01T06:28:43;6.60;;;3.57;;
215;SDS011;64590;48.81286795;9.14184224;2023-02-01T06:31:10;7.65;;;3.50;;
215;SDS011;64590;48.81286795;9.14184224;2023-02-01T06:33:37;7.20;;;3.42;;
215;SDS011;64590;48.81286795;9.14184224;2023-02-01T06:36:05;6.47;;;3.20;;
215;SDS011;64590;48.81286795;9.14184224;2023-02-01T06:38:33;6.45;;;3.70;;
215;SDS011;64590;48.81286795;9.14184224;2023-02-01T06:41:02;5.22;;;3.65;;
215;SDS011;64590;48.81286795;9.14184224;2023-02-01T06:43:29;7.55;;;3.95;;
215;SDS011;64590;48.81286795;9.14184224;2023-02-01T06:45:59;6.05;;;3.70;;
215;SDS011;64590;48.81286795;9.14184224;2023-02-01T06:48:26;6.82;;;4.00;;
215;SDS011;64590;48.81286795;9.14184224;2023-02-01T06:50:53;7.72;;;4.00;;
215;SDS011;64590;48.81286795;9.14184224;2023-02-01T06:53:19;9.52;;;4.30;;
215;SDS011;64590;48.81286795;9.14184224;2023-02-01T06:55:51;9.40;;;4.30;;
215;SDS011;64590;48.81286795;9.14184224;2023-02-01T06:58:20;8.55;;;4.40;;
215;SDS011;64590;48.81286795;9.14184224;2023-02-01T07:00:47;9.77;;;4.60;;
215;SDS011;64590;48.81286795;9.14184224;2023-02-01T07:03:13;9.43;;;4.90;;
215;SDS011;64590;48.81286795;9.14184224;2023-02-01T07:05:40;7.18;;;4.28;;
215;SDS011;64590;48.81286795;9.14184224;2023-02-01T07:08:06;8.00;;;4.82;;
215;SDS011;64590;48.81286795;9.14184224;2023-02-01T07:10:33;8.05;;;4.70;;
215;SDS011;64590;48.81286795;9.14184224;2023-02-01T07:13:00;15.70;;;4.78;;
215;SDS011;64590;48.81286795;9.14184224;2023-02-01T07:15:28;11.00;;;5.05;;
215;SDS011;64590;48.81286795;9.14184224;2023-02-01T07:17:54;12.32;;;4.72;;
215;SDS011;64590;48.81286795;9.14184224;2023-02-01T07:20:21;13.02;;;5.20;;
215;SDS011;64590;48.81286795;9.14184224;2023-02-01T07:22:48;10.88;;;5.15;;
215;SDS011;64590;48.81286795;9.14184224;2023-02-01T07:25:14;11.57;;;5.10;;
215;SDS011;64590;48.81286795;9.14184224;2023-02-01T07:27:41;11.68;;;5.25;;
215;SDS011;64590;48.81286795;9.14184224;2023-02-01T07:30:08;11.43;;;5.00;;
215;SDS011;64590;48.81286795;9.14184224;2023-02-01T07:32:37;9.25;;;5.05;;
215;SDS011;64590;48.81286795;9.14184224;2023-02-01T07:35:04;13.55;;;5.10;;
215;SDS011;64590;48.81286795;9.14184224;2023-02-01T07:37:31;12.30;;;5.80;;
215;SDS011;64590;48.81286795;9.14184224;2023-02-01T07:39:57;15.23;;;5.55;;
215;SDS011;64590;48.81286795;9.14184224;2023-02-01T07:42:24;9.60;;;5.15;;
215;SDS011;64590;48.81286795;9.14184224;2023-02-01T07:44:50;11.32;;;5.10;;
215;SDS011;64590;48.81286795;9.14184224;2023-02-01T07:47:17;13.25;;;5.65;;
215;SDS011;64590;48.81286795;9.14184224;2023-02-01T07:49:46;12.32;;;6.28;;
215;SDS011;64590;48.81286795;9.14184224;2023-02-01T07:52:13;12.30;;;5.20;;
215;SDS011;64590;48.81286795;9.14184224;2023-02-01T07:54:41;13.23;;;5.35;;
215;SDS011;64590;48.81286795;9.14184224;2023-02-01T07:57:08;11.98;;;5.40;;
215;SDS011;64590;48.81286795;9.14184224;2023-02-01T07:59:37;13.98;;;5.65;;
215;SDS011;64590;48.81286795;9.14184224;2023-02-01T08:02:24;13.93;;;5.07;;
215;SDS011;64590;48.81286795;9.14184224;2023-02-01T08:04:52;15.05;;;5.55;;
215;SDS011;64590;48.81286795;9.14184224;2023-02-01T08:07:19;11.73;;;5.15;;
215;SDS011;64590;48.81286795;9.14184224;2023-02-01T08:09:47;10.87;;;4.83;;
215;SDS011;64590;48.81286795;9.14184224;2023-02-01T08:12:14;11.70;;;5.50;;
215;SDS011;64590;48.81286795;9.14184224;2023-02-01T08:14:40;11.82;;;5.35;;
215;SDS011;64590;48.81286795;9.14184224;2023-02-01T08:17:07;13.73;;;5.20;;
215;SDS011;64590;48.81286795;9.14184224;2023-02-01T08:19:34;14.77;;;5.40;;
215;SDS011;64590;48.81286795;9.14184224;2023-02-01T08:22:02;15.70;;;5.30;;
215;SDS011;64590;48.81286795;9.14184224;2023-02-01T08:24:32;9.60;;;4.28;;
215;SDS011;64590;48.81286795;9.14184224;2023-02-01T08:27:00;11.88;;;4.90;;
215;SDS011;64590;48.81286795;9.14184224;2023-02-01T08:29:26;13.50;;;5.30;;
215;SDS011;64590;48.81286795;9.14184224;2023-02-01T08:31:53;15.45;;;4.80;;
215;SDS011;64590;48.81286795;9.14184224;2023-02-01T08:34:20;15.45;;;4.53;;
215;SDS011;64590;48.81286795;9.14184224;2023-02-01T08:36:47;16.73;;;4.75;;
215;SDS011;64590;48.81286795;9.14184224;2023-02-01T08:39:14;10.43;;;4.73;;
215;SDS011;64590;48.81286795;9.14184224;2023-02-01T08:41:41;10.45;;;4.68;;
215;SDS011;64590;48.81286795;9.14184224;2023-02-01T08:44:28;13.43;;;4.47;;
215;SDS011;64590;48.81286795;9.14184224;2023-02-01T08:46:54;12.95;;;4.80;;
215;SDS011;64590;48.81286795;9.14184224;2023-02-01T08:49:21;9.50;;;4.68;;
215;SDS011;64590;48.81286795;9.14184224;2023-02-01T08:51:48;17.60;;;5.35;;
215;SDS011;64590;48.81286795;9.14184224;2023-02-01T08:54:16;15.35;;;4.57;;
215;SDS011;64590;48.81286795;9.14184224;2023-02-01T08:56:42;15.25;;;4.68;;
215;SDS011;64590;48.81286795;9.14184224;2023-02-01T08:59:09;14.13;;;4.63;;
215;SDS011;64590;48.81286795;9.14184224;2023-02-01T09:01:36;15.30;;;5.00;;
215;SDS011;64590;48.81286795;9.14184224;2023-02-01T09:04:02;14.77;;;4.50;;
215;SDS011;64590;48.81286795;9.14184224;2023-02-01T09:06:29;16.57;;;5.03;;
215;SDS011;64590;48.81286795;9.14184224;2023-02-01T09:08:55;13.13;;;5.03;;
215;SDS011;64590;48.81286795;9.14184224;2023-02-01T09:11:23;14.07;;;5.03;;
215;SDS011;64590;48.81286795;9.14184224;2023-02-01T09:13:50;11.63;;;4.70;;
215;SDS011;64590;48.81286795;9.14184224;2023-02-01T09:16:17;14.83;;;5.17;;
215;SDS011;64590;48.81286795;9.14184224;2023-02-01T09:18:44;10.00;;;4.30;;
215;SDS011;64590;48.81286795;9.14184224;2023-02-01T09:21:10;13.20;;;4.60;;
215;SDS011;64590;48.81286795;9.14184224;2023-02-01T09:23:37;13.05;;;4.35;;
215;SDS011;64590;48.81286795;9.14184224;2023-02-01T09:26:04;17.08;;;4.80;;
215;SDS011;64590;48.81286795;9.14184224;2023-02-01T09:28:33;12.88;;;4.90;;
215;SDS011;64590;48.81286795;9.14184224;2023-02-01T09:31:00;14.45;;;5.22;;
215;SDS011;64590;48.81286795;9.14184224;2023-02-01T09:33:27;13.20;;;4.53;;
215;SDS011;64590;48.81286795;9.14184224;2023-02-01T09:35:55;15.50;;;5.40;;
215;SDS011;64590;48.81286795;9.14184224;2023-02-01T09:38:22;21.97;;;5.73;;
215;SDS011;64590;48.81286795;9.14184224;2023-02-01T09:40:50;16.48;;;4.40;;
215;SDS011;64590;48.81286795;9.14184224;2023-02-01T09:43:20;21.23;;;4.53;;
215;SDS011;64590;48.81286795;9.14184224;2023-02-01T09:45:59;12.65;;;4.25;;
215;SDS011;64590;48.81286795;9.14184224;2023-02-01T09:48:33;14.88;;;4.72;;
215;SDS011;64590;48.81286795;9.14184224;2023-02-01T09:51:05;14.32;;;4.43;;
215;SDS011;64590;48.81286795;9.14184224;2023-02-01T09:53:40;17.93;;;4.40;;
215;SDS011;64590;48.81286795;9.14184224;2023-02-01T09:56:11;16.90;;;4.23;;
215;SDS011;64590;48.81286795;9.14184224;2023-02-01T09:58:41;14.98;;;4.65;;
215;SDS011;64590;48.81286795;9.14184224;2023-02-01T10:01:13;14.90;;;4.50;;
215;SDS011;64590;48.81286795;9.14184224;2023-02-01T10:03:44;10.27;;;4.13;;
215;SDS011;64590;48.81286795;9.14184224;2023-02-01T10:06:20;19.07;;;4.60;;
215;SDS011;64590;48.81286795;9.14184224;2023-02-01T10:09:03;15.50;;;4.47;;
215;SDS011;64590;48.81286795;9.14184224;2023-02-01T10:11:42;12.33;;;4.30;;
215;SDS011;64590;48.81286795;9.14184224;2023-02-01T10:14:34;17.07;;;4.80;;
215;SDS011;64590;48.81286795;9.14184224;2023-02-01T10:17:13;15.50;;;4.37;;
215;SDS011;64590;48.81286795;9.14184224;2023-02-01T10:19:54;16.05;;;4.35;;
215;SDS011;64590;48.81286795;9.14184224;2023-02-01T10:22:36;18.77;;;4.65;;
215;SDS011;64590;48.81286795;9.14184224;2023-02-01T10:25:08;15.03;;;4.13;;
215;SDS011;64590;48.81286795;9.14184224;2023-02-01T10:27:43;15.00;;;4.37;;
215;SDS011;64590;48.81286795;9.14184224;2023-02-01T10:30:15;16.37;;;4.10;;
215;SDS011;64590;48.81286795;9.14184224;2023-02-01T10:32:46;16.23;;;4.93;;
215;SDS011;64590;48.81286795;9.14184224;2023-02-01T10:35:15;12.50;;;3.90;;
215;SDS011;64590;48.81286795;9.14184224;2023-02-01T10:37:44;14.97;;;4.00;;
215;SDS011;64590;48.81286795;9.14184224;2023-02-01T10:40:18;9.93;;;3.90;;
215;SDS011;64590;48.81286795;9.14184224;2023-02-01T10:42:47;13.23;;;4.17;;
215;SDS011;64590;48.81286795;9.14184224;2023-02-01T10:45:16;14.80;;;4.43;;
215;SDS011;64590;48.81286795;9.14184224;2023-02-01T10:47:44;29.37;;;4.43;;
215;SDS011;64590;48.81286795;9.14184224;2023-02-01T10:50:15;12.80;;;3.93;;
215;SDS011;64590;48.81286795;9.14184224;2023-02-01T10:52:46;13.20;;;4.05;;
215;SDS011;64590;48.81286795;9.14184224;2023-02-01T10:58:15;18.87;;;3.80;;
215;SDS011;64590;48.81286795;9.14184224;2023-02-01T11:00:44;16.87;;;4.33;;
215;SDS011;64590;48.81286795;9.14184224;2023-02-01T11:03:19;17.70;;;4.33;;
215;SDS011;64590;48.81286795;9.14184224;2023-02-01T11:05:57;27.87;;;4.50;;
215;SDS011;64590;48.81286795;9.14184224;2023-02-01T11:08:24;15.77;;;4.20;;
215;SDS011;64590;48.81286795;9.14184224;2023-02-01T11:10:56;18.40;;;4.47;;
215;SDS011;64590;48.81286795;9.14184224;2023-02-01T11:13:28;19.37;;;4.17;;
215;SDS011;64590;48.81286795;9.14184224;2023-02-01T11:15:56;16.60;;;3.70;;
215;SDS011;64590;48.81286795;9.14184224;2023-02-01T11:18:25;13.63;;;4.10;;
215;SDS011;64590;48.81286795;9.14184224;2023-02-01T11:20:54;16.40;;;4.60;;
215;SDS011;64590;48.81286795;9.14184224;2023-02-01T11:23:23;19.53;;;4.00;;
215;SDS011;64590;48.81286795;9.14184224;2023-02-01T11:25:52;17.10;;;4.23;;
215;SDS011;64590;48.81286795;9.14184224;2023-02-01T11:28:20;15.30;;;4.07;;
215;SDS011;64590;48.81286795;9.14184224;2023-02-01T11:30:49;18.53;;;4.20;;
215;SDS011;64590;48.81286795;9.14184224;2023-02-01T11:33:20;12.03;;;3.50;;
215;SDS011;64590;48.81286795;9.14184224;2023-02-01T11:35:55;19.40;;;4.23;;
215;SDS011;64590;48.81286795;9.14184224;2023-02-01T11:38:27;9.93;;;3.77;;
215;SDS011;64590;48.81286795;9.14184224;2023-02-01T11:40:55;19.30;;;3.77;;
215;SDS011;64590;48.81286795;9.14184224;2023-02-01T11:43:38;11.90;;;3.70;;
215;SDS011;64590;48.81286795;9.14184224;2023-02-01T11:46:18;11.60;;;3.63;;
215;SDS011;64590;48.81286795;9.14184224;2023-02-01T11:48:50;17.15;;;3.58;;
215;SDS011;64590;48.81286795;9.14184224;2023-02-01T11:51:19;15.30;;;3.58;;
215;SDS011;64590;48.81286795;9.14184224;2023-02-01T11:54:18;9.77;;;3.47;;
215;SDS011;64590;48.81286795;9.14184224;2023-02-01T11:56:57;10.53;;;3.67;;
215;SDS011;64590;48.81286795;9.14184224;2023-02-01T11:59:40;10.00;;;2.92;;
215;SDS011;64590;48.81286795;9.14184224;2023-02-01T12:02:31;18.27;;;4.40;;
215;SDS011;64590;48.81286795;9.14184224;2023-02-01T12:05:14;15.57;;;3.63;;
215;SDS011;64590;48.81286795;9.14184224;2023-02-01T12:07:57;18.63;;;3.60;;
215;SDS011;64590;48.81286795;9.14184224;2023-02-01T12:10:51;12.48;;;3.30;;
215;SDS011;64590;48.81286795;9.14184224;2023-02-01T12:13:31;9.80;;;2.87;;
215;SDS011;64590;48.81286795;9.14184224;2023-02-01T12:16:09;12.57;;;3.27;;
215;SDS011;64590;48.81286795;9.14184224;2023-02-01T12:18:55;8.97;;;3.10;;
215;SDS011;64590;48.81286795;9.14184224;2023-02-01T12:21:42;11.33;;;3.37;;
215;SDS011;64590;48.81286795;9.14184224;2023-02-01T12:24:23;10.97;;;3.37;;
215;SDS011;64590;48.81286795;9.14184224;2023-02-01T12:27:03;19.17;;;3.45;;
215;SDS011;64590;48.81286795;9.14184224;2023-02-01T12:29:55;15.17;;;3.40;;
215;SDS011;64590;48.81286795;9.14184224;2023-02-01T12:32:43;13.05;;;3.40;;
215;SDS011;64590;48.81286795;9.14184224;2023-02-01T12:35:22;15.43;;;3.78;;
215;SDS011;64590;48.81286795;9.14184224;2023-02-01T12:38:08;9.82;;;3.20;;
215;SDS011;64590;48.81286795;9.14184224;2023-02-01T12:40:45;13.98;;;3.42;;
215;SDS011;64590;48.81286795;9.14184224;2023-02-01T12:43:22;16.90;;;3.90;;
215;SDS011;64590;48.81286795;9.14184224;2023-02-01T12:46:01;13.85;;;3.90;;
215;SDS011;64590;48.81286795;9.14184224;2023-02-01T12:48:33;17.90;;;5.73;;
215;SDS011;64590;48.81286795;9.14184224;2023-02-01T12:51:05;23.10;;;7.80;;
215;SDS011;64590;48.81286795;9.14184224;2023-02-01T12:53:40;20.53;;;8.23;;
215;SDS011;64590;48.81286795;9.14184224;2023-02-01T12:56:14;16.60;;;6.63;;
215;SDS011;64590;48.81286795;9.14184224;2023-02-01T12:58:46;19.50;;;5.17;;
215;SDS011;64590;48.81286795;9.14184224;2023-02-01T13:01:17;14.70;;;4.05;;
215;SDS011;64590;48.81286795;9.14184224;2023-02-01T13:03:50;17.25;;;5.32;;
215;SDS011;64590;48.81286795;9.14184224;2023-02-01T13:06:22;25.98;;;8.57;;
215;SDS011;64590;48.81286795;9.14184224;2023-02-01T13:08:52;15.70;;;5.13;;
215;SDS011;64590;48.81286795;9.14184224;2023-02-01T13:11:24;17.63;;;5.17;;
215;SDS011;64590;48.81286795;9.14184224;2023-02-01T13:13:58;17.10;;;4.40;;
215;SDS011;64590;48.81286795;9.14184224;2023-02-01T13:16:29;17.80;;;4.40;;
215;SDS011;64590;48.81286795;9.14184224;2023-02-01T13:18:59;16.67;;;4.50;;
215;SDS011;64590;48.81286795;9.14184224;2023-02-01T13:21:33;12.10;;;4.20;;
215;SDS011;64590;48.81286795;9.14184224;2023-02-01T13:24:03;13.90;;;3.67;;
215;SDS011;64590;48.81286795;9.14184224;2023-02-01T13:26:30;12.50;;;4.07;;
215;SDS011;64590;48.81286795;9.14184224;2023-02-01T13:28:59;16.47;;;4.37;;
215;SDS011;64590;48.81286795;9.14184224;2023-02-01T13:31:35;13.87;;;3.97;;
215;SDS011;64590;48.81286795;9.14184224;2023-02-01T13:34:27;17.00;;;4.13;;
215;SDS011;64590;48.81286795;9.14184224;2023-02-01T13:37:11;9.88;;;3.60;;